Time;durP1;ratioP1;P1;durP2;ratioP2;P2;SDS_P1;SDS_P2;PMS_P1;PMS_P2;Temp;Humidity;BMP_temperature;BMP_pressure;BME280_temperature;BME280_humidity;BME280_pressure;Samples;Min_cycle;Max_cycle;Signal;HPM_P1;HPM_P2
2024/04/06 00:01:43;;;;;;;3.42;1.23;;;13.10;99.90;;;;;;4916757;29;20052;-58
2024/04/06 00:04:09;;;;;;;5.75;1.13;;;13.10;99.90;;;;;;4935067;29;20048;-60
2024/04/06 00:06:35;;;;;;;4.40;1.17;;;13.00;99.90;;;;;;4921204;29;20047;-59
2024/04/06 00:09:01;;;;;;;2.78;1.02;;;13.00;99.90;;;;;;4932676;29;20052;-58
2024/04/06 00:11:27;;;;;;;3.85;1.15;;;12.90;99.90;;;;;;4921802;29;20051;-60
2024/04/06 00:13:53;;;;;;;2.92;1.55;;;12.90;99.90;;;;;;4933055;29;20048;-60
2024/04/06 00:16:19;;;;;;;3.67;1.10;;;12.90;99.90;;;;;;4916689;29;20059;-60
2024/04/06 00:18:45;;;;;;;3.15;0.95;;;12.80;99.90;;;;;;4930651;29;20394;-60
2024/04/06 00:21:11;;;;;;;2.67;1.00;;;12.80;99.90;;;;;;4915990;29;20122;-59
2024/04/06 00:23:37;;;;;;;1.58;0.93;;;12.90;99.90;;;;;;4920449;29;20059;-58
2024/04/06 00:26:03;;;;;;;1.00;0.90;;;12.90;99.90;;;;;;4935867;29;20066;-60
2024/04/06 00:28:29;;;;;;;1.58;0.98;;;12.90;99.90;;;;;;4917017;29;20056;-57
2024/04/06 00:30:55;;;;;;;1.80;0.90;;;12.80;99.90;;;;;;4916562;29;20055;-60
2024/04/06 00:33:21;;;;;;;3.03;1.25;;;12.80;99.90;;;;;;4919747;29;20048;-60
2024/04/06 00:35:47;;;;;;;2.15;1.10;;;12.70;99.90;;;;;;4917678;29;20048;-59
2024/04/06 00:38:13;;;;;;;2.70;0.98;;;12.70;99.90;;;;;;4936156;29;20590;-59
2024/04/06 00:40:39;;;;;;;4.70;1.60;;;12.60;99.90;;;;;;4920036;29;20055;-59
2024/04/06 00:43:05;;;;;;;1.20;0.80;;;12.60;99.90;;;;;;4921588;29;20059;-60
2024/04/06 00:45:31;;;;;;;1.55;0.93;;;12.60;99.90;;;;;;4915267;29;20063;-60
2024/04/06 00:47:57;;;;;;;3.28;1.30;;;12.60;99.90;;;;;;4918091;29;20040;-58
2024/04/06 00:50:23;;;;;;;2.10;1.30;;;12.60;99.90;;;;;;4919237;29;20493;-60
2024/04/06 00:52:49;;;;;;;2.50;1.10;;;12.70;99.90;;;;;;4916865;29;20048;-60
2024/04/06 00:55:15;;;;;;;4.25;1.55;;;12.70;99.90;;;;;;4932368;29;20075;-60
2024/04/06 00:57:41;;;;;;;1.52;1.00;;;12.60;99.90;;;;;;4916319;29;20589;-59
2024/04/06 01:00:08;;;;;;;2.88;1.00;;;12.70;99.90;;;;;;4923140;29;20055;-58
2024/04/06 01:02:34;;;;;;;2.28;1.30;;;12.80;99.90;;;;;;4921669;29;20099;-59
2024/04/06 01:04:59;;;;;;;6.18;1.10;;;12.90;99.90;;;;;;4922410;29;20790;-60
2024/04/06 01:07:27;;;;;;;4.88;1.27;;;12.90;99.90;;;;;;4921445;29;20058;-59
2024/04/06 01:09:53;;;;;;;1.65;1.23;;;13.00;99.90;;;;;;4919449;29;20052;-60
2024/04/06 01:12:19;;;;;;;3.28;1.40;;;13.20;99.90;;;;;;4921407;29;20059;-58
2024/04/06 01:14:44;;;;;;;2.38;1.05;;;13.50;99.90;;;;;;4921359;29;20405;-59
2024/04/06 01:17:10;;;;;;;3.58;1.20;;;13.80;99.90;;;;;;4923978;29;20056;-58
2024/04/06 01:19:36;;;;;;;3.35;1.08;;;14.00;99.90;;;;;;4917733;29;20427;-59
2024/04/06 01:22:02;;;;;;;3.83;1.08;;;14.20;99.90;;;;;;4922470;29;20560;-57
2024/04/06 01:24:31;;;;;;;4.25;1.58;;;14.10;99.90;;;;;;4903313;29;20131;-58
2024/04/06 01:26:58;;;;;;;5.07;1.13;;;14.00;99.90;;;;;;4946502;28;20048;-59
2024/04/06 01:29:28;;;;;;;1.83;1.00;;;13.90;99.90;;;;;;4905542;29;20111;-59
2024/04/06 01:31:55;;;;;;;1.00;0.85;;;13.80;99.90;;;;;;4938794;29;20040;-55
2024/04/06 01:34:21;;;;;;;4.35;1.00;;;13.70;99.90;;;;;;4921582;29;20043;-58
2024/04/06 01:36:48;;;;;;;1.58;1.05;;;13.60;99.90;;;;;;4917905;29;20074;-57
2024/04/06 01:39:13;;;;;;;1.50;0.73;;;13.50;99.90;;;;;;4920901;29;20444;-58
2024/04/06 01:41:41;;;;;;;3.25;1.13;;;13.40;99.90;;;;;;4917057;29;20106;-56
2024/04/06 01:44:07;;;;;;;2.28;1.05;;;13.30;99.90;;;;;;4919654;29;20048;-58
2024/04/06 01:46:33;;;;;;;3.33;1.60;;;13.20;99.90;;;;;;4917210;29;20059;-57
2024/04/06 01:49:00;;;;;;;3.03;0.88;;;13.10;99.90;;;;;;4921860;29;20052;-58
2024/04/06 01:51:26;;;;;;;3.05;0.93;;;13.00;99.90;;;;;;4919009;29;20529;-59
2024/04/06 01:53:52;;;;;;;2.13;0.95;;;12.80;99.90;;;;;;4918389;29;20056;-57
2024/04/06 01:56:17;;;;;;;3.40;1.23;;;12.70;99.90;;;;;;4923547;29;20047;-57
2024/04/06 01:58:44;;;;;;;2.80;1.10;;;12.60;99.90;;;;;;4921331;29;20472;-58
2024/04/06 02:01:11;;;;;;;2.55;1.30;;;12.50;99.90;;;;;;4933635;29;20108;-59
2024/04/06 02:03:37;;;;;;;5.75;1.85;;;12.30;99.90;;;;;;4916271;29;20051;-59
2024/04/06 02:06:02;;;;;;;3.60;1.40;;;12.30;99.90;;;;;;4921881;29;20052;-57
2024/04/06 02:08:28;;;;;;;2.95;1.10;;;12.20;99.90;;;;;;4921418;29;20044;-57
2024/04/06 02:10:54;;;;;;;2.58;1.20;;;12.30;99.90;;;;;;4920645;29;20084;-56
2024/04/06 02:13:20;;;;;;;1.30;1.13;;;12.20;99.90;;;;;;4922385;29;20441;-59
2024/04/06 02:15:45;;;;;;;2.15;1.35;;;12.30;99.90;;;;;;4916313;29;20131;-58
2024/04/06 02:18:12;;;;;;;2.08;1.15;;;12.30;99.90;;;;;;4921486;29;20136;-55
2024/04/06 02:20:39;;;;;;;3.72;1.30;;;12.30;99.90;;;;;;4916280;29;20064;-58
2024/04/06 02:23:05;;;;;;;4.43;1.23;;;12.30;99.90;;;;;;4916723;29;20048;-56
2024/04/06 02:25:32;;;;;;;1.60;1.50;;;12.40;99.90;;;;;;4921391;29;20075;-58
2024/04/06 02:27:58;;;;;;;2.03;1.08;;;12.50;99.90;;;;;;4919281;29;20051;-59
2024/04/06 02:30:25;;;;;;;2.03;1.00;;;12.40;99.90;;;;;;4932376;29;20071;-57
2024/04/06 02:32:51;;;;;;;2.13;1.23;;;12.50;99.90;;;;;;4933297;29;20052;-55
2024/04/06 02:35:16;;;;;;;1.88;0.90;;;12.40;99.90;;;;;;4916114;29;20091;-57
2024/04/06 02:37:43;;;;;;;5.20;1.02;;;12.30;99.90;;;;;;4918610;29;20067;-55
2024/04/06 02:40:09;;;;;;;2.60;1.27;;;12.30;99.90;;;;;;4919890;29;20048;-58
2024/04/06 02:42:35;;;;;;;5.20;1.02;;;12.30;99.90;;;;;;4917608;29;20107;-57
2024/04/06 02:45:01;;;;;;;2.70;1.02;;;12.20;99.90;;;;;;4935825;29;20055;-56
2024/04/06 02:47:28;;;;;;;3.08;0.98;;;12.10;99.90;;;;;;4920617;29;20056;-57
2024/04/06 02:49:54;;;;;;;3.35;0.90;;;12.10;99.90;;;;;;4918816;29;20058;-59
2024/04/06 02:52:20;;;;;;;6.05;1.15;;;12.00;99.90;;;;;;4920510;29;20048;-56
2024/04/06 02:54:47;;;;;;;1.55;1.05;;;12.00;99.90;;;;;;4920473;29;20058;-58
2024/04/06 02:57:14;;;;;;;3.72;1.48;;;12.00;99.90;;;;;;4933997;29;20052;-57
2024/04/06 02:59:40;;;;;;;3.58;1.00;;;11.90;99.90;;;;;;4936747;29;20060;-56
2024/04/06 03:02:07;;;;;;;3.35;0.90;;;12.00;99.90;;;;;;4921262;29;20095;-59
2024/04/06 03:04:34;;;;;;;2.03;1.20;;;11.90;99.90;;;;;;4936113;29;20075;-60
2024/04/06 03:07:00;;;;;;;2.40;1.05;;;11.80;99.90;;;;;;4920409;29;20048;-59
2024/04/06 03:09:26;;;;;;;3.42;1.10;;;11.70;99.90;;;;;;4919203;29;20378;-57
2024/04/06 03:11:52;;;;;;;4.28;1.20;;;11.60;99.90;;;;;;4930238;29;20059;-58
2024/04/06 03:14:17;;;;;;;2.60;1.20;;;11.50;99.90;;;;;;4921752;29;20048;-58
2024/04/06 03:16:43;;;;;;;6.78;1.05;;;11.40;99.90;;;;;;4919889;29;20056;-59
2024/04/06 03:19:09;;;;;;;1.38;1.15;;;11.40;99.90;;;;;;4919887;29;20100;-57
2024/04/06 03:21:35;;;;;;;5.47;1.23;;;11.30;99.90;;;;;;4918863;29;20055;-59
2024/04/06 03:24:00;;;;;;;3.00;1.13;;;11.30;99.90;;;;;;4936496;29;20048;-59
2024/04/06 03:26:26;;;;;;;2.72;1.23;;;11.30;99.90;;;;;;4918131;29;20553;-59
2024/04/06 03:28:52;;;;;;;2.60;1.40;;;11.20;99.90;;;;;;4934648;29;20115;-57
2024/04/06 03:31:18;;;;;;;3.65;1.17;;;11.20;99.90;;;;;;4914830;29;20130;-57
2024/04/06 03:33:44;;;;;;;4.93;1.33;;;11.20;99.90;;;;;;4915539;29;20056;-59
2024/04/06 03:36:10;;;;;;;2.67;1.17;;;11.20;99.90;;;;;;4921535;29;20040;-56
2024/04/06 03:38:36;;;;;;;0.95;0.80;;;11.10;99.90;;;;;;4915190;29;20066;-56
2024/04/06 03:41:02;;;;;;;2.75;1.13;;;11.10;99.90;;;;;;4914518;29;20052;-57
2024/04/06 03:43:27;;;;;;;7.38;1.17;;;11.10;99.90;;;;;;4919181;29;20060;-58
2024/04/06 03:45:54;;;;;;;1.77;1.02;;;11.00;99.90;;;;;;4930895;29;20075;-59
2024/04/06 03:48:23;;;;;;;2.95;1.10;;;11.00;99.90;;;;;;4906247;29;20055;-57
2024/04/06 03:50:49;;;;;;;5.53;1.60;;;11.00;99.90;;;;;;4917372;29;20052;-58
2024/04/06 03:53:16;;;;;;;3.25;1.20;;;11.00;99.90;;;;;;4917504;29;20409;-59
2024/04/06 03:55:42;;;;;;;2.05;1.20;;;10.90;99.90;;;;;;4917731;29;20145;-60
2024/04/06 03:58:08;;;;;;;1.50;1.08;;;11.00;99.90;;;;;;4921606;29;20661;-59
2024/04/06 04:00:34;;;;;;;2.78;1.00;;;10.90;99.90;;;;;;4918188;29;20060;-56
2024/04/06 04:03:00;;;;;;;2.08;0.98;;;10.80;99.90;;;;;;4938949;29;20048;-60
2024/04/06 04:05:26;;;;;;;3.38;1.25;;;10.80;99.90;;;;;;4917459;29;20406;-59
2024/04/06 04:07:52;;;;;;;5.32;1.48;;;10.70;99.90;;;;;;4917463;29;20067;-59
2024/04/06 04:10:17;;;;;;;2.53;1.15;;;10.70;99.90;;;;;;4917114;29;20102;-59
2024/04/06 04:12:44;;;;;;;3.75;1.13;;;10.60;99.90;;;;;;4915831;29;20048;-59
2024/04/06 04:15:09;;;;;;;2.50;1.33;;;10.60;99.90;;;;;;4920137;29;20059;-59
2024/04/06 04:17:35;;;;;;;1.73;1.23;;;10.60;99.90;;;;;;4917475;29;20150;-60
2024/04/06 04:20:04;;;;;;;1.85;1.00;;;10.60;99.90;;;;;;4917384;29;20059;-59
2024/04/06 04:22:30;;;;;;;3.17;1.52;;;10.60;99.90;;;;;;4936164;29;20064;-59
2024/04/06 04:24:57;;;;;;;2.42;1.45;;;10.50;99.90;;;;;;4933161;29;20517;-59
2024/04/06 04:27:24;;;;;;;3.22;1.30;;;10.50;99.90;;;;;;4918362;29;20098;-59
2024/04/06 04:29:50;;;;;;;2.13;1.15;;;10.40;99.90;;;;;;4917396;29;20486;-57
2024/04/06 04:32:16;;;;;;;2.13;1.25;;;10.40;99.90;;;;;;4937463;28;20055;-58
2024/04/06 04:34:42;;;;;;;5.43;1.48;;;10.40;99.90;;;;;;4922349;29;20067;-59
2024/04/06 04:37:08;;;;;;;2.17;1.20;;;10.40;99.90;;;;;;4925740;29;20131;-59
2024/04/06 04:39:33;;;;;;;2.67;1.35;;;10.30;99.90;;;;;;4922277;29;20051;-60
2024/04/06 04:41:59;;;;;;;1.55;1.20;;;10.20;99.90;;;;;;4918534;29;20063;-58
2024/04/06 04:44:26;;;;;;;6.53;1.42;;;10.20;99.90;;;;;;4917190;29;20052;-58
2024/04/06 04:46:52;;;;;;;5.35;1.65;;;10.20;99.90;;;;;;4915289;29;20048;-58
2024/04/06 04:49:18;;;;;;;5.65;1.33;;;10.20;99.90;;;;;;4938210;29;20051;-60
2024/04/06 04:51:44;;;;;;;2.55;1.30;;;10.10;99.90;;;;;;4918889;29;20059;-59
2024/04/06 04:54:10;;;;;;;3.30;1.17;;;10.10;99.90;;;;;;4923421;29;20048;-60
2024/04/06 04:56:36;;;;;;;1.67;1.33;;;10.10;99.90;;;;;;4909637;29;20063;-58
2024/04/06 04:59:03;;;;;;;1.65;1.48;;;10.10;99.90;;;;;;4921023;29;20420;-58
2024/04/06 05:01:29;;;;;;;2.33;1.30;;;10.10;99.90;;;;;;4908114;29;20060;-58
2024/04/06 05:03:55;;;;;;;2.30;1.42;;;10.00;99.90;;;;;;4934729;29;20462;-58
2024/04/06 05:06:21;;;;;;;1.20;1.10;;;10.00;99.90;;;;;;4918386;29;20103;-58
2024/04/06 05:08:47;;;;;;;1.88;1.27;;;9.90;99.90;;;;;;4919907;29;20055;-59
2024/04/06 05:11:13;;;;;;;4.78;1.40;;;9.90;99.90;;;;;;4923296;29;20052;-58
2024/04/06 05:13:38;;;;;;;3.60;1.30;;;9.90;99.90;;;;;;4919756;29;20056;-59
2024/04/06 05:16:05;;;;;;;4.32;1.20;;;10.00;99.90;;;;;;4908202;29;20064;-57
2024/04/06 05:18:31;;;;;;;3.72;1.48;;;10.00;99.90;;;;;;4923418;29;20520;-60
2024/04/06 05:20:58;;;;;;;4.40;1.20;;;10.10;99.90;;;;;;4922349;29;20134;-59
2024/04/06 05:23:27;;;;;;;6.45;1.25;;;10.10;99.90;;;;;;4925653;29;20066;-60
2024/04/06 05:25:54;;;;;;;3.60;1.25;;;10.10;99.90;;;;;;4917376;29;20055;-60
2024/04/06 05:28:21;;;;;;;3.80;1.98;;;10.20;99.90;;;;;;4923156;29;20055;-59
2024/04/06 05:30:48;;;;;;;4.60;1.45;;;10.30;99.90;;;;;;4923312;29;20052;-60
2024/04/06 05:33:15;;;;;;;3.58;1.50;;;10.30;99.90;;;;;;4936624;29;20815;-57
2024/04/06 05:35:42;;;;;;;4.07;1.50;;;10.30;99.90;;;;;;4920158;29;20409;-60
2024/04/06 05:38:08;;;;;;;1.75;0.95;;;10.40;99.90;;;;;;4933893;29;20059;-59
2024/04/06 05:40:42;;;;;;;2.85;1.50;;;10.40;99.90;;;;;;4920986;29;20056;-60
2024/04/06 05:43:08;;;;;;;3.03;1.60;;;10.40;99.90;;;;;;4922597;29;20553;-57
2024/04/06 05:45:38;;;;;;;3.80;1.27;;;10.60;99.90;;;;;;4918819;29;20494;-59
2024/04/06 05:48:05;;;;;;;4.20;1.77;;;10.70;99.90;;;;;;4922401;29;20500;-60
2024/04/06 05:50:41;;;;;;;2.28;1.50;;;10.70;99.90;;;;;;4926590;29;20068;-59
2024/04/06 05:53:07;;;;;;;8.00;1.58;;;10.70;99.90;;;;;;4940474;29;20119;-60
2024/04/06 05:55:32;;;;;;;5.28;1.40;;;10.80;99.90;;;;;;4922578;29;20549;-57
2024/04/06 05:57:59;;;;;;;4.60;1.30;;;10.90;99.90;;;;;;4941689;29;20123;-59
2024/04/06 06:00:25;;;;;;;3.95;1.92;;;11.00;99.90;;;;;;4899223;29;20056;-59
2024/04/06 06:02:52;;;;;;;5.50;1.55;;;11.00;99.90;;;;;;4937429;28;20052;-59
2024/04/06 06:05:19;;;;;;;3.53;2.05;;;11.20;99.90;;;;;;4919799;29;20563;-58
2024/04/06 06:07:45;;;;;;;3.47;1.85;;;11.30;99.90;;;;;;4922125;29;20059;-60
2024/04/06 06:10:11;;;;;;;2.63;1.60;;;11.50;99.90;;;;;;4927713;29;20493;-60
2024/04/06 06:12:36;;;;;;;6.88;1.70;;;11.60;99.90;;;;;;4922635;29;20055;-56
2024/04/06 06:15:03;;;;;;;4.57;1.80;;;11.70;99.90;;;;;;4924133;29;20087;-59
2024/04/06 06:17:28;;;;;;;3.83;1.20;;;11.90;99.90;;;;;;4920577;29;20055;-59
2024/04/06 06:19:54;;;;;;;6.97;1.27;;;12.10;99.90;;;;;;4910087;29;20058;-58
2024/04/06 06:22:21;;;;;;;6.32;1.50;;;12.20;99.90;;;;;;4923653;29;20075;-59
2024/04/06 06:24:48;;;;;;;7.18;2.00;;;12.30;99.90;;;;;;4922248;29;20059;-58
2024/04/06 06:27:14;;;;;;;3.92;1.88;;;12.40;99.90;;;;;;4921930;29;20064;-61
2024/04/06 06:29:41;;;;;;;2.95;1.77;;;12.40;99.90;;;;;;4922823;29;20054;-59
2024/04/06 06:32:07;;;;;;;6.63;2.28;;;12.50;99.90;;;;;;4923603;29;20272;-59
2024/04/06 06:34:33;;;;;;;6.85;2.13;;;12.60;99.90;;;;;;4925796;29;20047;-60
2024/04/06 06:36:59;;;;;;;6.47;2.47;;;12.70;99.90;;;;;;4943970;29;20059;-59
2024/04/06 06:39:24;;;;;;;11.93;3.30;;;12.80;99.90;;;;;;4930139;29;20051;-59
2024/04/06 06:41:53;;;;;;;10.15;2.75;;;12.90;99.90;;;;;;4940249;29;20063;-60
2024/04/06 06:44:19;;;;;;;6.72;3.75;;;13.00;99.90;;;;;;4926037;29;20449;-59
2024/04/06 06:46:45;;;;;;;5.82;3.50;;;13.10;99.90;;;;;;4937101;29;20056;-61
2024/04/06 06:49:10;;;;;;;5.97;2.72;;;13.20;99.90;;;;;;4927876;29;20425;-59
2024/04/06 06:51:37;;;;;;;9.57;2.42;;;13.30;99.90;;;;;;4924536;29;20114;-60
2024/04/06 06:54:06;;;;;;;4.88;2.10;;;13.40;99.90;;;;;;4918777;29;20059;-58
2024/04/06 06:56:32;;;;;;;7.38;2.40;;;13.50;99.90;;;;;;4919655;29;20673;-60
2024/04/06 06:58:58;;;;;;;6.03;2.20;;;13.70;99.90;;;;;;4926965;29;20055;-60
2024/04/06 07:01:24;;;;;;;3.83;2.03;;;13.80;99.90;;;;;;4924119;29;20063;-58
2024/04/06 07:03:51;;;;;;;4.47;1.42;;;14.00;99.90;;;;;;4919826;29;20047;-59
2024/04/06 07:06:17;;;;;;;6.43;1.73;;;14.20;99.90;;;;;;4934660;29;20067;-56
2024/04/06 07:08:43;;;;;;;6.82;2.17;;;14.50;99.90;;;;;;4921559;29;20059;-59
2024/04/06 07:11:10;;;;;;;3.92;1.80;;;14.70;99.90;;;;;;4924286;29;20052;-60
2024/04/06 07:13:36;;;;;;;2.55;1.70;;;14.90;99.90;;;;;;4925561;29;20405;-57
2024/04/06 07:16:04;;;;;;;3.05;1.63;;;15.10;99.90;;;;;;4938362;29;20067;-59
2024/04/06 07:18:30;;;;;;;3.28;1.35;;;15.40;99.90;;;;;;4919140;29;20457;-58
2024/04/06 07:20:57;;;;;;;2.90;1.15;;;15.60;99.90;;;;;;4924072;29;20055;-57
2024/04/06 07:23:23;;;;;;;2.72;1.23;;;15.70;99.90;;;;;;4918382;29;20056;-58
2024/04/06 07:25:49;;;;;;;3.13;1.65;;;16.00;99.90;;;;;;4926391;29;20497;-60
2024/04/06 07:28:16;;;;;;;9.18;1.60;;;16.20;99.90;;;;;;4923051;29;20139;-60
2024/04/06 07:30:43;;;;;;;3.10;1.27;;;16.40;99.90;;;;;;4924196;29;20056;-59
2024/04/06 07:33:10;;;;;;;2.53;1.42;;;16.60;99.90;;;;;;4920467;29;20051;-60
2024/04/06 07:35:36;;;;;;;2.13;1.45;;;16.80;99.90;;;;;;4926463;29;20413;-58
2024/04/06 07:38:02;;;;;;;3.53;1.25;;;16.90;99.90;;;;;;4919103;29;20056;-59
2024/04/06 07:40:28;;;;;;;2.38;1.10;;;17.10;99.90;;;;;;4923733;29;20091;-56
2024/04/06 07:42:53;;;;;;;4.20;1.33;;;17.10;99.90;;;;;;4925208;29;20139;-59
2024/04/06 07:45:19;;;;;;;3.20;1.20;;;17.10;99.90;;;;;;4920828;29;20416;-60
2024/04/06 07:47:45;;;;;;;3.25;1.17;;;17.10;99.90;;;;;;4921676;29;20052;-59
2024/04/06 07:50:11;;;;;;;2.60;1.30;;;17.10;99.90;;;;;;4926685;29;20051;-57
2024/04/06 07:52:37;;;;;;;3.38;1.50;;;17.20;99.90;;;;;;4922248;29;20060;-60
2024/04/06 07:55:03;;;;;;;3.35;1.42;;;17.20;99.90;;;;;;4926623;29;20663;-61
2024/04/06 07:57:29;;;;;;;4.57;1.55;;;17.30;99.90;;;;;;4923274;29;20056;-59
2024/04/06 07:59:56;;;;;;;2.88;1.40;;;17.30;99.90;;;;;;4924396;29;20066;-60
2024/04/06 08:02:22;;;;;;;8.27;1.67;;;17.30;99.90;;;;;;4914974;29;20088;-60
2024/04/06 08:04:48;;;;;;;2.10;1.52;;;17.30;99.90;;;;;;4923855;29;20052;-59
2024/04/06 08:07:14;;;;;;;5.18;1.73;;;17.30;99.90;;;;;;4912899;29;20058;-61
2024/04/06 08:09:40;;;;;;;3.22;1.92;;;17.20;99.90;;;;;;4923581;29;20060;-60
2024/04/06 08:12:06;;;;;;;2.63;1.60;;;17.20;99.90;;;;;;4917407;29;20052;-58
2024/04/06 08:14:31;;;;;;;4.10;1.20;;;17.20;99.90;;;;;;4915780;29;20123;-61
2024/04/06 08:16:57;;;;;;;5.03;1.33;;;17.10;99.90;;;;;;4919873;29;20056;-60
2024/04/06 08:19:23;;;;;;;3.65;1.58;;;17.10;99.90;;;;;;4916431;29;20091;-60
2024/04/06 08:21:49;;;;;;;3.13;1.15;;;17.10;99.90;;;;;;4921555;29;20052;-61
2024/04/06 08:24:17;;;;;;;3.97;1.67;;;17.10;99.90;;;;;;4931262;29;20051;-59
2024/04/06 08:26:44;;;;;;;1.95;1.58;;;17.10;99.90;;;;;;4895781;29;20513;-60
2024/04/06 08:29:10;;;;;;;3.78;1.70;;;17.10;99.90;;;;;;4916913;29;20079;-60
2024/04/06 08:31:35;;;;;;;5.65;1.58;;;17.20;99.90;;;;;;4915528;29;20040;-60
2024/04/06 08:34:01;;;;;;;4.55;1.50;;;17.20;99.90;;;;;;4904846;29;20060;-61
2024/04/06 08:36:27;;;;;;;4.75;1.67;;;17.30;99.90;;;;;;4905264;29;20052;-60
2024/04/06 08:38:52;;;;;;;5.20;1.60;;;17.40;99.90;;;;;;4917040;29;20048;-60
2024/04/06 08:41:20;;;;;;;2.10;1.08;;;17.40;99.90;;;;;;4919555;29;20054;-61
2024/04/06 08:43:53;;;;;;;2.45;1.08;;;17.60;99.90;;;;;;4919297;29;20051;-60
2024/04/06 08:46:20;;;;;;;4.78;1.05;;;17.90;99.90;;;;;;4915224;29;20051;-60
2024/04/06 08:48:48;;;;;;;1.25;0.90;;;18.20;99.90;;;;;;4913312;29;20139;-61
2024/04/06 08:51:16;;;;;;;2.42;0.63;;;18.30;99.90;;;;;;4914851;29;20643;-60
2024/04/06 08:53:42;;;;;;;1.17;0.60;;;18.50;99.90;;;;;;4914935;29;20095;-59
2024/04/06 08:56:08;;;;;;;2.03;0.60;;;18.90;99.90;;;;;;4910636;29;20533;-61
2024/04/06 08:58:34;;;;;;;1.17;0.60;;;19.40;99.90;;;;;;4931883;29;20052;-61
2024/04/06 09:01:05;;;;;;;1.23;0.57;;;19.80;99.90;;;;;;4916480;29;20054;-61
2024/04/06 09:03:33;;;;;;;;;;;20.20;99.90;;;;;;4919027;29;20060;-61
2024/04/06 09:06:00;;;;;;;1.40;0.80;;;20.50;99.90;;;;;;4921919;29;19962;-61
2024/04/06 09:08:50;;;;;;;1.90;0.50;;;20.80;99.90;;;;;;4936303;29;20055;-61
2024/04/06 09:11:16;;;;;;;1.42;0.73;;;21.00;99.90;;;;;;4948146;23;20044;-61
2024/04/06 09:13:42;;;;;;;1.58;0.60;;;21.20;99.90;;;;;;4949545;28;20051;-61
2024/04/06 09:16:12;;;;;;;3.15;0.60;;;21.30;99.90;;;;;;4948849;28;20637;-61
2024/04/06 09:18:40;;;;;;;1.33;0.57;;;21.40;99.90;;;;;;4942892;28;20055;-61
2024/04/06 09:21:06;;;;;;;1.15;0.70;;;21.50;99.90;;;;;;4950479;28;20055;-60
2024/04/06 09:23:32;;;;;;;1.15;0.60;;;21.60;99.90;;;;;;4948715;28;20058;-61
2024/04/06 09:26:02;;;;;;;0.55;0.50;;;21.60;99.90;;;;;;4946589;28;20496;-61
2024/04/06 09:28:28;;;;;;;;;;;21.50;99.90;;;;;;4935983;29;20047;-61
2024/04/06 09:30:56;;;;;;;0.68;0.60;;;21.70;99.90;;;;;;4949044;29;21348;-61
2024/04/06 09:33:23;;;;;;;3.03;0.77;;;21.80;99.90;;;;;;4947908;28;20051;-61
2024/04/06 09:35:50;;;;;;;0.65;0.40;;;21.80;99.90;;;;;;4950385;28;20075;-61
2024/04/06 09:38:17;;;;;;;0.93;0.60;;;21.80;99.90;;;;;;4950209;28;20054;-61
2024/04/06 09:40:47;;;;;;;2.28;1.05;;;21.80;99.90;;;;;;4947885;28;20468;-61
2024/04/06 09:43:13;;;;;;;;;;;21.90;99.90;;;;;;4945137;29;20062;-62
2024/04/06 09:45:40;;;;;;;0.82;0.52;;;21.90;99.90;;;;;;4943972;28;19930;-62
2024/04/06 09:48:10;;;;;;;0.80;0.32;;;21.90;99.90;;;;;;4949914;29;20054;-62
2024/04/06 09:50:40;;;;;;;0.93;0.47;;;22.00;99.90;;;;;;4948297;28;20043;-62
2024/04/06 09:53:06;;;;;;;1.60;0.50;;;22.10;99.90;;;;;;4949411;29;20067;-61
2024/04/06 09:55:36;;;;;;;1.52;0.50;;;22.20;99.20;;;;;;4943057;28;20055;-62
2024/04/06 09:58:03;;;;;;;1.30;0.65;;;22.20;99.70;;;;;;4946494;29;20771;-62
2024/04/06 10:00:30;;;;;;;1.65;0.95;;;22.20;99.90;;;;;;4947791;28;20063;-62
2024/04/06 10:02:55;;;;;;;1.42;0.82;;;22.10;99.90;;;;;;4946033;28;20059;-61
2024/04/06 10:05:21;;;;;;;2.83;0.77;;;22.10;99.90;;;;;;4947266;28;20117;-62
2024/04/06 10:07:49;;;;;;;1.20;0.50;;;22.10;99.90;;;;;;4948936;28;20051;-62
2024/04/06 10:10:16;;;;;;;2.90;0.70;;;22.00;99.90;;;;;;4945659;28;20066;-62
2024/04/06 10:12:44;;;;;;;3.58;0.50;;;22.20;99.90;;;;;;4944933;28;20725;-62
2024/04/06 10:15:14;;;;;;;2.88;0.80;;;22.10;99.90;;;;;;4947595;28;20043;-62
2024/04/06 10:17:45;;;;;;;;;;;22.10;99.90;;;;;;4949114;29;20043;-59
2024/04/06 10:20:13;;;;;;;0.70;0.50;;;22.20;99.90;;;;;;4945408;28;19930;-61
2024/04/06 10:22:59;;;;;;;1.05;0.80;;;22.20;99.90;;;;;;4949292;28;20067;-62
2024/04/06 10:25:34;;;;;;;2.22;0.60;;;22.20;99.90;;;;;;4947563;28;20055;-62
2024/04/06 10:28:07;;;;;;;1.65;0.60;;;22.10;99.90;;;;;;4946822;28;20550;-60
2024/04/06 10:30:34;;;;;;;1.38;0.50;;;22.20;99.90;;;;;;4929992;29;20051;-62
2024/04/06 10:33:00;;;;;;;3.50;1.33;;;22.10;99.90;;;;;;4947440;28;20048;-62
2024/04/06 10:35:26;;;;;;;3.17;0.68;;;22.20;99.90;;;;;;4949214;29;20051;-62
2024/04/06 10:37:53;;;;;;;1.60;0.60;;;22.10;99.90;;;;;;4949310;28;20047;-61
2024/04/06 10:40:27;;;;;;;1.95;0.82;;;22.10;99.90;;;;;;4947294;29;20047;-62
2024/04/06 10:42:54;;;;;;;3.58;0.75;;;22.30;99.90;;;;;;4961954;28;20063;-61
2024/04/06 10:45:21;;;;;;;2.17;0.60;;;22.20;99.90;;;;;;4948694;28;20051;-61
2024/04/06 10:47:47;;;;;;;3.92;0.50;;;22.20;99.90;;;;;;4949110;28;20051;-62
2024/04/06 10:50:13;;;;;;;3.63;0.82;;;22.50;99.90;;;;;;4948284;29;20082;-62
2024/04/06 10:52:45;;;;;;;1.27;0.57;;;22.40;99.90;;;;;;4949290;28;20055;-61
2024/04/06 10:55:15;;;;;;;2.78;0.65;;;22.30;99.90;;;;;;4961497;28;20047;-62
2024/04/06 10:57:42;;;;;;;2.00;0.80;;;22.40;99.90;;;;;;4946571;29;20063;-62
2024/04/06 11:00:17;;;;;;;1.95;0.73;;;22.30;99.90;;;;;;4949096;28;20548;-62
2024/04/06 11:02:44;;;;;;;1.33;0.60;;;22.50;99.90;;;;;;4946190;28;20044;-62
2024/04/06 11:05:10;;;;;;;1.67;0.60;;;22.70;99.20;;;;;;4948740;28;20060;-61
2024/04/06 11:07:41;;;;;;;1.23;0.63;;;22.80;99.90;;;;;;4943869;29;20040;-62
2024/04/06 11:10:11;;;;;;;1.35;0.80;;;22.80;99.70;;;;;;4932888;29;20055;-61
2024/04/06 11:12:39;;;;;;;3.08;0.70;;;22.70;99.60;;;;;;4948811;29;20106;-61
2024/04/06 11:15:07;;;;;;;1.48;0.52;;;22.90;97.80;;;;;;4949376;28;20059;-62
2024/04/06 11:17:36;;;;;;;1.48;0.63;;;23.00;97.20;;;;;;4943726;28;20047;-62
2024/04/06 11:20:06;;;;;;;0.85;0.60;;;23.00;98.70;;;;;;4948521;28;20527;-62
2024/04/06 11:22:33;;;;;;;2.17;0.65;;;23.00;97.00;;;;;;4948521;28;20508;-61
2024/04/06 11:24:59;;;;;;;0.82;0.65;;;22.90;96.10;;;;;;4942385;29;20052;-60
2024/04/06 11:27:25;;;;;;;0.90;0.57;;;23.00;96.60;;;;;;4943058;28;20047;-61
2024/04/06 11:29:51;;;;;;;1.02;0.50;;;23.00;98.80;;;;;;4949237;29;20484;-61
2024/04/06 11:32:19;;;;;;;7.55;0.68;;;23.20;97.60;;;;;;4948033;28;20059;-61
2024/04/06 11:34:50;;;;;;;1.65;0.85;;;23.20;97.20;;;;;;4948462;28;20464;-61
2024/04/06 11:37:17;;;;;;;2.97;0.70;;;23.20;99.50;;;;;;4951511;28;20050;-59
2024/04/06 11:39:44;;;;;;;4.47;0.70;;;23.10;96.60;;;;;;4947580;28;20417;-60
2024/04/06 11:42:10;;;;;;;4.15;0.73;;;23.20;96.80;;;;;;4948510;28;20058;-61
2024/04/06 11:44:35;;;;;;;2.28;0.73;;;23.20;97.60;;;;;;4947593;28;20046;-59
2024/04/06 11:47:02;;;;;;;0.63;0.57;;;23.40;98.00;;;;;;4947942;28;20437;-61
2024/04/06 11:49:27;;;;;;;2.22;0.55;;;23.40;97.60;;;;;;4946572;29;20046;-60
2024/04/06 11:51:53;;;;;;;6.28;0.70;;;23.40;96.50;;;;;;4948497;28;20043;-59
2024/04/06 11:54:20;;;;;;;1.35;0.70;;;23.50;96.40;;;;;;4946973;29;20047;-60
2024/04/06 11:56:45;;;;;;;1.73;0.70;;;23.50;95.90;;;;;;4948114;29;20533;-60
2024/04/06 11:59:11;;;;;;;1.45;0.50;;;23.50;96.90;;;;;;4947594;29;20051;-58
2024/04/06 12:01:37;;;;;;;2.42;0.82;;;23.50;96.00;;;;;;4941477;28;20047;-60
2024/04/06 12:04:03;;;;;;;1.95;0.85;;;23.60;96.40;;;;;;4945715;29;20051;-61
2024/04/06 12:09:05;;;;;;;0.57;0.47;;;23.90;94.50;;;;;;5081950;23;20101;-64
2024/04/06 12:11:31;;;;;;;1.55;0.50;;;24.30;94.50;;;;;;4957044;28;20149;-64
2024/04/06 12:13:57;;;;;;;3.40;0.60;;;24.10;96.40;;;;;;4956449;28;20055;-64
2024/04/06 12:16:23;;;;;;;0.88;0.50;;;24.20;94.30;;;;;;4956880;28;20065;-64
2024/04/06 12:18:49;;;;;;;1.88;0.60;;;24.30;95.00;;;;;;4950825;28;20051;-64
2024/04/06 12:21:15;;;;;;;2.20;0.60;;;24.50;96.20;;;;;;4957051;28;20055;-64
2024/04/06 12:23:41;;;;;;;0.95;0.57;;;24.60;97.30;;;;;;4979979;28;20054;-63
2024/04/06 12:26:07;;;;;;;1.15;0.63;;;24.50;98.30;;;;;;4954991;28;20043;-64
2024/04/06 12:28:33;;;;;;;2.05;0.82;;;24.40;97.30;;;;;;4954698;28;20399;-64
2024/04/06 12:30:59;;;;;;;0.90;0.70;;;24.50;98.10;;;;;;4955709;28;20543;-64
2024/04/06 12:33:24;;;;;;;1.45;0.63;;;24.50;96.70;;;;;;4961046;28;20601;-64
2024/04/06 12:35:52;;;;;;;1.73;1.00;;;24.70;96.70;;;;;;4950907;28;20066;-64
2024/04/06 12:38:18;;;;;;;0.95;0.50;;;24.80;95.30;;;;;;4948429;28;20567;-64
2024/04/06 12:40:44;;;;;;;0.63;0.50;;;24.90;94.90;;;;;;4941120;28;20058;-64
2024/04/06 12:43:09;;;;;;;0.80;0.40;;;25.00;95.00;;;;;;4948778;28;20535;-64
2024/04/06 12:45:35;;;;;;;1.98;0.70;;;25.00;94.50;;;;;;4952201;28;20062;-64
2024/04/06 12:48:01;;;;;;;0.80;0.50;;;25.00;95.20;;;;;;4949799;28;20042;-64